createdAt,value
2023-03-26T00:00:42.562Z,9.36
2023-03-26T00:04:10.876Z,9.35
2023-03-26T00:07:32.202Z,9.33
2023-03-26T00:10:37.050Z,9.34
2023-03-26T00:13:56.225Z,9.34
2023-03-26T00:17:18.641Z,9.34
2023-03-26T00:21:18.355Z,9.32
2023-03-26T00:24:37.981Z,9.23
2023-03-26T00:28:09.533Z,9.16
2023-03-26T00:31:38.653Z,9.14
2023-03-26T00:35:07.511Z,9.16
2023-03-26T00:38:40.132Z,9.17
2023-03-26T00:42:15.043Z,9.14
2023-03-26T00:45:47.368Z,9.13
2023-03-26T00:49:16.398Z,9.11
2023-03-26T00:52:46.131Z,9.11
2023-03-26T00:56:14.784Z,9.10
2023-03-26T00:59:43.565Z,9.09
2023-03-26T01:03:26.731Z,9.09
2023-03-26T01:07:15.789Z,9.10
2023-03-26T01:10:47.278Z,9.14
2023-03-26T01:14:16.254Z,9.17
2023-03-26T01:17:53.783Z,9.18
2023-03-26T01:21:23.772Z,9.20
2023-03-26T01:25:05.413Z,9.25
2023-03-26T01:28:56.562Z,9.27
2023-03-26T01:32:28.620Z,9.29
2023-03-26T01:36:09.693Z,9.27
2023-03-26T01:39:52.278Z,9.23
2023-03-26T01:43:23.764Z,9.21
2023-03-26T01:46:55.245Z,9.18
2023-03-26T01:50:24.580Z,9.16
2023-03-26T01:53:53.461Z,9.08
2023-03-26T01:57:50.056Z,9.03
2023-03-26T02:01:21.610Z,8.96
2023-03-26T02:05:24.788Z,8.92
2023-03-26T02:09:04.745Z,8.84
2023-03-26T02:12:34.152Z,8.76
2023-03-26T02:16:05.966Z,8.65
2023-03-26T02:19:35.635Z,8.58
2023-03-26T02:22:58.250Z,8.47
2023-03-26T02:26:27.504Z,8.35
2023-03-26T02:29:57.008Z,8.19
2023-03-26T02:33:26.134Z,8.05
2023-03-26T02:36:55.824Z,8.00
2023-03-26T02:40:25.776Z,7.95
2023-03-26T02:43:55.245Z,7.89
2023-03-26T02:47:24.633Z,7.84
2023-03-26T02:50:47.870Z,7.79
2023-03-26T02:54:19.726Z,7.76
2023-03-26T02:57:49.266Z,7.75
2023-03-26T03:01:18.970Z,7.69
2023-03-26T03:04:48.684Z,7.59
2023-03-26T03:08:17.994Z,7.47
2023-03-26T03:11:51.238Z,7.37
2023-03-26T03:15:21.172Z,7.27
2023-03-26T03:18:52.862Z,7.18
2023-03-26T03:22:21.688Z,7.11
2023-03-26T03:25:51.201Z,7.06
2023-03-26T03:29:20.457Z,7.00
2023-03-26T03:32:41.694Z,6.95
2023-03-26T03:36:19.695Z,6.91
2023-03-26T03:39:50.775Z,6.94
2023-03-26T03:43:15.341Z,6.95
2023-03-26T03:46:44.428Z,6.94
2023-03-26T03:50:13.629Z,6.93
2023-03-26T03:53:39.736Z,6.90
2023-03-26T03:56:48.760Z,6.86
2023-03-26T03:59:47.578Z,6.82
2023-03-26T04:03:17.778Z,6.79
2023-03-26T04:06:50.013Z,6.76
2023-03-26T04:10:20.152Z,6.72
2023-03-26T04:13:48.530Z,6.68
2023-03-26T04:17:20.762Z,6.65
2023-03-26T04:20:50.143Z,6.63
2023-03-26T04:24:19.618Z,6.60
2023-03-26T04:27:51.792Z,6.59
2023-03-26T04:31:20.853Z,6.59
2023-03-26T04:34:50.241Z,6.62
2023-03-26T04:38:25.603Z,6.67
2023-03-26T04:42:24.512Z,6.70
2023-03-26T04:45:44.392Z,6.75
2023-03-26T04:49:13.816Z,6.78
2023-03-26T04:52:44.994Z,6.78
2023-03-26T04:56:22.255Z,6.75
2023-03-26T04:59:55.912Z,6.72
2023-03-26T05:03:25.429Z,6.68
2023-03-26T05:06:54.968Z,6.61
2023-03-26T05:10:17.901Z,6.55
2023-03-26T05:13:50.106Z,6.48
2023-03-26T05:17:19.383Z,6.39
2023-03-26T05:20:48.190Z,6.30
2023-03-26T05:24:17.987Z,6.21
2023-03-26T05:27:37.020Z,6.12
2023-03-26T05:31:09.658Z,6.03
2023-03-26T05:34:38.880Z,5.94
2023-03-26T05:38:10.918Z,5.86
2023-03-26T05:41:45.229Z,5.74
2023-03-26T05:45:16.961Z,5.62
2023-03-26T05:48:46.355Z,5.51
2023-03-26T05:52:16.387Z,5.42
2023-03-26T05:55:45.346Z,5.32
2023-03-26T05:59:14.644Z,5.23
2023-03-26T06:02:43.721Z,5.15
2023-03-26T06:06:18.444Z,5.08
2023-03-26T06:09:47.485Z,5.02
2023-03-26T06:13:16.655Z,4.97
2023-03-26T06:16:45.956Z,4.89
2023-03-26T06:20:14.814Z,4.84
2023-03-26T06:23:44.066Z,4.78
2023-03-26T06:27:13.586Z,4.73
2023-03-26T06:30:45.919Z,4.68
2023-03-26T06:34:15.113Z,4.64
2023-03-26T06:37:44.485Z,4.61
2023-03-26T06:41:13.457Z,4.60
2023-03-26T06:44:42.895Z,4.61
2023-03-26T06:48:12.038Z,4.63
2023-03-26T06:51:40.816Z,4.66
2023-03-26T06:55:10.144Z,4.70
2023-03-26T06:58:39.980Z,4.73
2023-03-26T07:02:09.078Z,4.77
2023-03-26T07:05:39.585Z,4.81
2023-03-26T07:09:18.106Z,4.86
2023-03-26T07:12:46.821Z,4.91
2023-03-26T07:16:16.367Z,4.96
2023-03-26T07:19:45.737Z,5.05
2023-03-26T07:23:20.955Z,5.14
2023-03-26T07:26:59.326Z,5.21
2023-03-26T07:30:41.568Z,5.25
2023-03-26T07:34:17.238Z,5.30
2023-03-26T07:38:01.752Z,5.33
2023-03-26T07:41:39.336Z,5.38
2023-03-26T07:45:23.701Z,5.40
2023-03-26T07:48:55.608Z,5.43
2023-03-26T07:52:25.102Z,5.47
2023-03-26T07:55:44.293Z,5.52
2023-03-26T07:59:25.612Z,5.57
2023-03-26T08:03:12.842Z,5.65
2023-03-26T08:06:54.002Z,5.72
2023-03-26T08:10:25.884Z,5.80
2023-03-26T08:13:58.304Z,5.89
2023-03-26T08:17:36.803Z,5.98
2023-03-26T08:21:11.541Z,6.04
2023-03-26T08:24:40.905Z,6.06
2023-03-26T08:27:58.538Z,6.06
2023-03-26T08:31:27.114Z,6.05
2023-03-26T08:34:56.624Z,6.04
2023-03-26T08:38:25.482Z,6.03
2023-03-26T08:41:54.989Z,6.03
2023-03-26T08:45:36.125Z,6.03
2023-03-26T08:49:11.053Z,6.03
2023-03-26T08:52:58.082Z,6.02
2023-03-26T08:56:38.135Z,5.99
2023-03-26T09:00:07.670Z,5.93
2023-03-26T09:03:47.651Z,5.90
2023-03-26T09:07:22.647Z,5.87
2023-03-26T09:11:13.850Z,5.81
2023-03-26T09:14:47.676Z,5.74
2023-03-26T09:18:35.608Z,5.66
2023-03-26T09:22:17.056Z,5.56
2023-03-26T09:25:55.789Z,5.46
2023-03-26T09:29:26.373Z,5.37
2023-03-26T09:33:26.402Z,5.28
2023-03-26T09:37:07.599Z,5.20
2023-03-26T09:40:45.548Z,5.11
2023-03-26T09:44:23.926Z,4.99
2023-03-26T09:48:02.914Z,4.86
2023-03-26T09:51:47.513Z,4.75
2023-03-26T09:55:14.953Z,4.70
2023-03-26T09:59:05.612Z,4.71
2023-03-26T10:02:57.100Z,4.71
2023-03-26T10:06:42.150Z,4.68
2023-03-26T10:10:42.192Z,4.68
2023-03-26T10:14:38.640Z,4.65
2023-03-26T10:18:27.474Z,4.63
2023-03-26T10:22:22.822Z,4.60
2023-03-26T10:25:59.417Z,4.60
2023-03-26T10:29:34.394Z,4.63
2023-03-26T10:33:27.943Z,4.66
2023-03-26T10:37:09.753Z,4.69
2023-03-26T10:40:48.293Z,4.70
2023-03-26T10:44:36.065Z,4.71
2023-03-26T10:48:16.377Z,4.72
2023-03-26T10:52:00.884Z,4.72
2023-03-26T10:55:36.430Z,4.73
2023-03-26T10:59:08.116Z,4.74
2023-03-26T11:02:42.941Z,4.77
2023-03-26T11:06:49.096Z,4.80
2023-03-26T11:10:34.469Z,4.85
2023-03-26T11:14:16.836Z,4.89
2023-03-26T11:17:52.096Z,4.95
2023-03-26T11:21:30.152Z,5.03
2023-03-26T11:25:08.521Z,5.06
2023-03-26T11:29:03.665Z,5.05
2023-03-26T11:32:40.293Z,5.07
2023-03-26T11:36:18.632Z,5.08
2023-03-26T11:39:47.792Z,5.10
2023-03-26T11:43:16.575Z,5.13
2023-03-26T11:46:46.263Z,5.16
2023-03-26T11:50:15.392Z,5.19
2023-03-26T11:53:44.607Z,5.24
2023-03-26T11:57:07.310Z,5.26
2023-03-26T12:00:49.448Z,5.30
2023-03-26T12:04:18.977Z,5.33
2023-03-26T12:07:58.100Z,5.33
2023-03-26T12:11:27.710Z,5.34
2023-03-26T12:15:05.744Z,5.35
2023-03-26T12:18:34.904Z,5.35
2023-03-26T12:21:48.032Z,5.36
2023-03-26T12:25:17.585Z,5.37
2023-03-26T12:28:46.817Z,5.38
2023-03-26T12:32:16.406Z,5.38
2023-03-26T12:35:45.841Z,5.36
2023-03-26T12:39:16.702Z,5.33
2023-03-26T12:44:47.436Z,5.35
2023-03-26T12:47:58.926Z,5.38
2023-03-26T12:51:00.822Z,5.40
2023-03-26T12:54:33.194Z,5.43
2023-03-26T12:58:14.386Z,5.47
2023-03-26T13:01:52.672Z,5.49
2023-03-26T13:05:48.990Z,5.51
2023-03-26T13:09:21.930Z,5.56
2023-03-26T13:12:49.727Z,5.57
2023-03-26T13:16:56.084Z,5.60
2023-03-26T13:20:33.178Z,5.64
2023-03-26T13:24:05.532Z,5.67
2023-03-26T13:27:46.783Z,5.68
2023-03-26T13:32:00.733Z,5.69
2023-03-26T13:35:18.862Z,5.70
2023-03-26T13:38:58.863Z,5.73
2023-03-26T13:42:56.932Z,5.77
2023-03-26T13:46:38.294Z,5.79
2023-03-26T13:50:14.043Z,5.79
2023-03-26T13:53:46.046Z,5.79
2023-03-26T13:57:17.926Z,5.80
2023-03-26T14:00:56.516Z,5.81
2023-03-26T14:04:24.222Z,5.81
2023-03-26T14:08:03.247Z,5.84
2023-03-26T14:11:38.653Z,5.87
2023-03-26T14:15:11.385Z,5.90
2023-03-26T14:18:43.092Z,5.93
2023-03-26T14:22:37.056Z,5.98
2023-03-26T14:26:09.503Z,6.00
2023-03-26T14:29:57.048Z,6.03
2023-03-26T14:33:30.113Z,6.05
2023-03-26T14:37:18.942Z,6.08
2023-03-26T14:41:41.114Z,6.09
2023-03-26T14:45:14.734Z,6.08
2023-03-26T14:49:01.460Z,6.05
2023-03-26T14:52:39.573Z,6.04
2023-03-26T14:56:12.072Z,6.02
2023-03-26T14:59:47.137Z,6.02
2023-03-26T15:03:23.205Z,6.03
2023-03-26T15:06:40.969Z,6.03
2023-03-26T15:10:23.724Z,6.03
2023-03-26T15:14:14.206Z,6.06
2023-03-26T15:17:47.524Z,6.06
2023-03-26T15:21:15.094Z,6.02
2023-03-26T15:24:44.467Z,5.99
2023-03-26T15:28:25.256Z,5.97
2023-03-26T15:31:54.528Z,5.96
2023-03-26T15:35:35.096Z,5.94
2023-03-26T15:39:11.834Z,5.91
2023-03-26T15:42:50.444Z,5.87
2023-03-26T15:46:19.836Z,5.84
2023-03-26T15:49:58.283Z,5.84
2023-03-26T15:53:34.499Z,5.88
2023-03-26T15:57:25.184Z,5.93
2023-03-26T16:01:01.093Z,5.96
2023-03-26T16:04:33.336Z,6.01
2023-03-26T16:07:58.040Z,6.06
2023-03-26T16:11:25.537Z,6.10
2023-03-26T16:15:00.372Z,6.12
2023-03-26T16:18:28.525Z,6.14
2023-03-26T16:22:01.035Z,6.14
2023-03-26T16:25:30.627Z,6.12
2023-03-26T16:29:09.165Z,6.03
2023-03-26T16:33:16.713Z,5.96
2023-03-26T16:36:40.794Z,5.94
2023-03-26T16:40:18.895Z,5.97
2023-03-26T16:44:18.681Z,6.00
2023-03-26T16:48:06.139Z,6.02
2023-03-26T16:51:41.212Z,6.05
2023-03-26T16:55:07.356Z,6.09
2023-03-26T16:58:16.030Z,6.15
2023-03-26T17:01:56.814Z,6.20
2023-03-26T17:05:26.300Z,6.24
2023-03-26T17:09:11.112Z,6.29
2023-03-26T17:12:43.084Z,6.33
2023-03-26T17:16:22.203Z,6.39
2023-03-26T17:20:03.370Z,6.45
2023-03-26T17:23:39.841Z,6.50
2023-03-26T17:27:19.927Z,6.56
2023-03-26T17:31:07.165Z,6.62
2023-03-26T17:34:37.216Z,6.66
2023-03-26T17:38:14.814Z,6.70
2023-03-26T17:41:46.985Z,6.74
2023-03-26T17:45:22.397Z,6.78
2023-03-26T17:48:50.074Z,6.81
2023-03-26T17:52:22.226Z,6.83
2023-03-26T17:55:51.669Z,6.85
2023-03-26T17:59:30.134Z,6.87
2023-03-26T18:03:04.667Z,6.87
2023-03-26T18:06:24.070Z,6.83
2023-03-26T18:10:09.004Z,6.77
2023-03-26T18:13:50.316Z,6.75
2023-03-26T18:17:19.389Z,6.73
2023-03-26T18:20:48.545Z,6.70
2023-03-26T18:24:23.941Z,6.66
2023-03-26T18:27:56.273Z,6.63
2023-03-26T18:31:28.562Z,6.64
2023-03-26T18:34:57.736Z,6.65
2023-03-26T18:38:35.623Z,6.70
2023-03-26T18:42:23.447Z,6.78
2023-03-26T18:46:12.154Z,6.85
2023-03-26T18:49:44.536Z,6.95
2023-03-26T18:53:16.502Z,7.02
2023-03-26T18:57:01.061Z,7.10
2023-03-26T19:00:29.847Z,7.19
2023-03-26T19:04:04.660Z,7.25
2023-03-26T19:07:36.289Z,7.32
2023-03-26T19:11:06.523Z,7.39
2023-03-26T19:14:38.654Z,7.43
2023-03-26T19:18:07.615Z,7.50
2023-03-26T19:21:39.164Z,7.57
2023-03-26T19:25:10.622Z,7.65
2023-03-26T19:28:32.843Z,7.72
2023-03-26T19:32:14.143Z,7.79
2023-03-26T19:35:43.604Z,7.87
2023-03-26T19:39:36.563Z,7.94
2023-03-26T19:43:07.582Z,7.97
2023-03-26T19:50:35.301Z,7.88
2023-03-26T19:51:18.355Z,7.96
2023-03-26T19:54:13.551Z,7.81
2023-03-26T19:57:42.688Z,7.77
2023-03-26T20:01:12.196Z,7.75
2023-03-26T20:04:47.596Z,7.78
2023-03-26T20:08:19.689Z,7.85
2023-03-26T20:11:50.189Z,7.91
2023-03-26T20:15:19.760Z,7.97
2023-03-26T20:18:39.649Z,7.97
2023-03-26T20:22:14.455Z,8.02
2023-03-26T20:25:43.645Z,8.07
2023-03-26T20:29:06.246Z,8.06
2023-03-26T20:32:35.337Z,8.05
2023-03-26T20:36:06.220Z,8.07
2023-03-26T20:39:35.295Z,8.03
2023-03-26T20:43:04.332Z,7.98
2023-03-26T20:46:36.336Z,7.92
2023-03-26T20:50:05.201Z,7.86
2023-03-26T20:53:34.651Z,7.87
2023-03-26T20:57:04.135Z,7.85
2023-03-26T21:00:41.879Z,7.83
2023-03-26T21:04:10.953Z,7.87
2023-03-26T21:07:42.891Z,7.90
2023-03-26T21:11:12.035Z,7.89
2023-03-26T21:14:50.637Z,7.88
2023-03-26T21:18:19.801Z,7.95
2023-03-26T21:22:01.446Z,8.03
2023-03-26T21:25:32.245Z,8.09
2023-03-26T21:29:20.384Z,8.14
2023-03-26T21:32:50.876Z,8.17
2023-03-26T21:36:20.338Z,8.18
2023-03-26T21:39:50.048Z,8.22
2023-03-26T21:43:19.329Z,8.26
2023-03-26T21:46:48.609Z,8.31
2023-03-26T21:50:17.683Z,8.35
2023-03-26T21:53:47.834Z,8.37
2023-03-26T21:57:19.987Z,8.40
2023-03-26T22:00:56.292Z,8.44
2023-03-26T22:04:26.172Z,8.48
2023-03-26T22:07:58.350Z,8.49
2023-03-26T22:11:27.642Z,8.47
2023-03-26T22:14:56.601Z,8.44
2023-03-26T22:18:25.379Z,8.41
2023-03-26T22:21:55.163Z,8.39
2023-03-26T22:25:26.947Z,8.38
2023-03-26T22:28:56.085Z,8.38
2023-03-26T22:32:25.432Z,8.38
2023-03-26T22:36:01.966Z,8.35
2023-03-26T22:39:31.786Z,8.35
2023-03-26T22:43:00.934Z,8.41
2023-03-26T22:46:33.216Z,8.51
2023-03-26T22:49:52.861Z,8.64
2023-03-26T22:53:22.223Z,8.75
2023-03-26T22:56:44.100Z,8.90
2023-03-26T23:00:13.065Z,9.04
2023-03-26T23:03:42.021Z,9.17
2023-03-26T23:07:12.106Z,9.31
2023-03-26T23:10:41.191Z,9.45
2023-03-26T23:14:11.137Z,9.57
2023-03-26T23:17:40.188Z,9.66
2023-03-26T23:21:11.824Z,9.75
2023-03-26T23:28:23.287Z,9.91
2023-03-26T23:32:31.787Z,9.94
2023-03-26T23:35:42.665Z,10.00
2023-03-26T23:39:13.135Z,10.05
2023-03-26T23:42:42.637Z,10.08
2023-03-26T23:46:15.285Z,10.07
2023-03-26T23:49:44.830Z,10.09
2023-03-26T23:53:13.684Z,10.14
2023-03-26T23:56:42.855Z,10.14
